sensor_id;sensor_type;location;lat;lon;timestamp;temperature;humidity
16863;DHT22;52193;48.216;-1.698;2023-04-24T00:00:41;14.80;92.50
16863;DHT22;52193;48.216;-1.698;2023-04-24T00:03:10;14.80;92.60
16863;DHT22;52193;48.216;-1.698;2023-04-24T00:05:39;14.70;92.40
16863;DHT22;52193;48.216;-1.698;2023-04-24T00:08:06;14.80;92.40
16863;DHT22;52193;48.216;-1.698;2023-04-24T00:10:33;14.80;92.50
16863;DHT22;52193;48.216;-1.698;2023-04-24T00:13:00;14.80;92.50
16863;DHT22;52193;48.216;-1.698;2023-04-24T00:15:27;14.70;92.40
16863;DHT22;52193;48.216;-1.698;2023-04-24T00:17:54;14.70;92.50
16863;DHT22;52193;48.216;-1.698;2023-04-24T00:20:21;14.70;92.50
16863;DHT22;52193;48.216;-1.698;2023-04-24T00:22:49;14.70;92.60
16863;DHT22;52193;48.216;-1.698;2023-04-24T00:25:16;14.60;92.60
16863;DHT22;52193;48.216;-1.698;2023-04-24T00:27:43;14.60;92.50
16863;DHT22;52193;48.216;-1.698;2023-04-24T00:30:10;14.60;92.50
16863;DHT22;52193;48.216;-1.698;2023-04-24T00:32:37;14.60;92.60
16863;DHT22;52193;48.216;-1.698;2023-04-24T00:35:05;14.50;92.50
16863;DHT22;52193;48.216;-1.698;2023-04-24T00:37:32;14.60;92.60
16863;DHT22;52193;48.216;-1.698;2023-04-24T00:40:00;14.70;92.60
16863;DHT22;52193;48.216;-1.698;2023-04-24T00:42:28;14.70;92.50
16863;DHT22;52193;48.216;-1.698;2023-04-24T00:44:56;14.70;92.50
16863;DHT22;52193;48.216;-1.698;2023-04-24T00:47:23;14.80;92.50
16863;DHT22;52193;48.216;-1.698;2023-04-24T00:49:51;14.70;92.40
16863;DHT22;52193;48.216;-1.698;2023-04-24T00:52:18;14.60;92.40
16863;DHT22;52193;48.216;-1.698;2023-04-24T00:54:46;14.70;92.40
16863;DHT22;52193;48.216;-1.698;2023-04-24T00:57:14;14.60;92.50
16863;DHT22;52193;48.216;-1.698;2023-04-24T00:59:42;14.60;92.50
16863;DHT22;52193;48.216;-1.698;2023-04-24T01:02:09;14.60;92.60
16863;DHT22;52193;48.216;-1.698;2023-04-24T01:04:38;14.70;92.60
16863;DHT22;52193;48.216;-1.698;2023-04-24T01:07:05;14.60;92.60
16863;DHT22;52193;48.216;-1.698;2023-04-24T01:09:35;14.60;92.60
16863;DHT22;52193;48.216;-1.698;2023-04-24T01:12:03;14.50;92.60
16863;DHT22;52193;48.216;-1.698;2023-04-24T01:14:31;14.50;92.60
16863;DHT22;52193;48.216;-1.698;2023-04-24T01:16:58;14.50;92.70
16863;DHT22;52193;48.216;-1.698;2023-04-24T01:19:25;14.50;92.60
16863;DHT22;52193;48.216;-1.698;2023-04-24T01:21:53;14.50;92.70
16863;DHT22;52193;48.216;-1.698;2023-04-24T01:24:25;14.50;92.60
16863;DHT22;52193;48.216;-1.698;2023-04-24T01:26:52;14.50;92.70
16863;DHT22;52193;48.216;-1.698;2023-04-24T01:29:19;14.50;92.80
16863;DHT22;52193;48.216;-1.698;2023-04-24T01:31:46;14.50;92.80
16863;DHT22;52193;48.216;-1.698;2023-04-24T01:34:13;14.40;92.80
16863;DHT22;52193;48.216;-1.698;2023-04-24T01:36:41;14.50;92.90
16863;DHT22;52193;48.216;-1.698;2023-04-24T01:39:09;14.50;93.00
16863;DHT22;52193;48.216;-1.698;2023-04-24T01:41:37;14.50;92.90
16863;DHT22;52193;48.216;-1.698;2023-04-24T01:44:04;14.40;93.00
16863;DHT22;52193;48.216;-1.698;2023-04-24T01:46:31;14.50;93.10
16863;DHT22;52193;48.216;-1.698;2023-04-24T01:49:00;14.50;93.10
16863;DHT22;52193;48.216;-1.698;2023-04-24T01:51:27;14.50;93.20
16863;DHT22;52193;48.216;-1.698;2023-04-24T01:53:54;14.50;93.20
16863;DHT22;52193;48.216;-1.698;2023-04-24T01:56:22;14.50;93.20
16863;DHT22;52193;48.216;-1.698;2023-04-24T01:58:50;14.50;93.30
16863;DHT22;52193;48.216;-1.698;2023-04-24T02:01:20;14.50;93.20
16863;DHT22;52193;48.216;-1.698;2023-04-24T02:03:47;14.50;93.30
16863;DHT22;52193;48.216;-1.698;2023-04-24T02:06:14;14.50;93.40
16863;DHT22;52193;48.216;-1.698;2023-04-24T02:08:40;14.40;93.40
16863;DHT22;52193;48.216;-1.698;2023-04-24T02:11:08;14.40;93.50
16863;DHT22;52193;48.216;-1.698;2023-04-24T02:13:35;14.40;93.40
16863;DHT22;52193;48.216;-1.698;2023-04-24T02:16:04;14.30;93.60
16863;DHT22;52193;48.216;-1.698;2023-04-24T02:18:31;14.30;93.60
16863;DHT22;52193;48.216;-1.698;2023-04-24T02:20:58;14.30;93.70
16863;DHT22;52193;48.216;-1.698;2023-04-24T02:23:25;14.30;93.80
16863;DHT22;52193;48.216;-1.698;2023-04-24T02:25:52;14.30;93.90
16863;DHT22;52193;48.216;-1.698;2023-04-24T02:28:19;14.20;93.90
16863;DHT22;52193;48.216;-1.698;2023-04-24T02:30:46;14.30;94.00
16863;DHT22;52193;48.216;-1.698;2023-04-24T02:33:15;14.30;94.00
16863;DHT22;52193;48.216;-1.698;2023-04-24T02:35:41;14.20;94.10
16863;DHT22;52193;48.216;-1.698;2023-04-24T02:38:08;14.30;94.20
16863;DHT22;52193;48.216;-1.698;2023-04-24T02:40:35;14.30;94.10
16863;DHT22;52193;48.216;-1.698;2023-04-24T02:43:02;14.30;94.30
16863;DHT22;52193;48.216;-1.698;2023-04-24T02:45:29;14.20;94.20
16863;DHT22;52193;48.216;-1.698;2023-04-24T02:47:56;14.20;94.30
16863;DHT22;52193;48.216;-1.698;2023-04-24T02:50:24;14.20;94.40
16863;DHT22;52193;48.216;-1.698;2023-04-24T02:52:51;14.20;94.40
16863;DHT22;52193;48.216;-1.698;2023-04-24T02:55:18;14.30;94.50
16863;DHT22;52193;48.216;-1.698;2023-04-24T02:57:45;14.20;94.50
16863;DHT22;52193;48.216;-1.698;2023-04-24T03:00:13;14.20;94.50
16863;DHT22;52193;48.216;-1.698;2023-04-24T03:02:40;14.20;94.60
16863;DHT22;52193;48.216;-1.698;2023-04-24T03:05:07;14.30;94.70
16863;DHT22;52193;48.216;-1.698;2023-04-24T03:07:35;14.20;94.60
16863;DHT22;52193;48.216;-1.698;2023-04-24T03:10:03;14.20;95.00
16863;DHT22;52193;48.216;-1.698;2023-04-24T03:12:30;14.10;94.80
16863;DHT22;52193;48.216;-1.698;2023-04-24T03:14:57;14.10;94.90
16863;DHT22;52193;48.216;-1.698;2023-04-24T03:17:24;14.10;94.90
16863;DHT22;52193;48.216;-1.698;2023-04-24T03:19:51;14.10;94.90
16863;DHT22;52193;48.216;-1.698;2023-04-24T03:22:18;14.10;94.90
16863;DHT22;52193;48.216;-1.698;2023-04-24T03:24:46;14.00;94.90
16863;DHT22;52193;48.216;-1.698;2023-04-24T03:27:13;14.00;95.00
16863;DHT22;52193;48.216;-1.698;2023-04-24T03:29:40;14.00;95.00
16863;DHT22;52193;48.216;-1.698;2023-04-24T03:32:07;14.00;95.10
16863;DHT22;52193;48.216;-1.698;2023-04-24T03:34:33;14.00;95.10
16863;DHT22;52193;48.216;-1.698;2023-04-24T03:37:00;14.00;95.10
16863;DHT22;52193;48.216;-1.698;2023-04-24T03:39:27;14.00;95.20
16863;DHT22;52193;48.216;-1.698;2023-04-24T03:41:55;14.00;95.10
16863;DHT22;52193;48.216;-1.698;2023-04-24T03:44:22;14.10;95.20
16863;DHT22;52193;48.216;-1.698;2023-04-24T03:46:49;14.00;95.20
16863;DHT22;52193;48.216;-1.698;2023-04-24T03:49:16;14.00;95.20
16863;DHT22;52193;48.216;-1.698;2023-04-24T03:51:43;14.00;95.20
16863;DHT22;52193;48.216;-1.698;2023-04-24T03:54:10;14.00;95.30
16863;DHT22;52193;48.216;-1.698;2023-04-24T03:56:37;14.00;95.40
16863;DHT22;52193;48.216;-1.698;2023-04-24T03:59:05;14.00;95.50
16863;DHT22;52193;48.216;-1.698;2023-04-24T04:01:32;13.90;95.40
16863;DHT22;52193;48.216;-1.698;2023-04-24T04:04:02;13.90;95.40
16863;DHT22;52193;48.216;-1.698;2023-04-24T04:06:29;13.90;95.40
16863;DHT22;52193;48.216;-1.698;2023-04-24T04:08:57;14.00;95.50
16863;DHT22;52193;48.216;-1.698;2023-04-24T04:11:24;13.90;95.50
16863;DHT22;52193;48.216;-1.698;2023-04-24T04:13:52;13.80;95.50
16863;DHT22;52193;48.216;-1.698;2023-04-24T04:16:20;13.90;95.50
16863;DHT22;52193;48.216;-1.698;2023-04-24T04:18:47;13.90;95.50
16863;DHT22;52193;48.216;-1.698;2023-04-24T04:21:14;13.80;95.60
16863;DHT22;52193;48.216;-1.698;2023-04-24T04:23:41;13.90;95.60
16863;DHT22;52193;48.216;-1.698;2023-04-24T04:26:08;13.80;95.60
16863;DHT22;52193;48.216;-1.698;2023-04-24T04:28:34;13.80;95.60
16863;DHT22;52193;48.216;-1.698;2023-04-24T04:31:03;13.80;95.80
16863;DHT22;52193;48.216;-1.698;2023-04-24T04:33:31;13.90;95.80
16863;DHT22;52193;48.216;-1.698;2023-04-24T04:35:58;13.80;95.70
16863;DHT22;52193;48.216;-1.698;2023-04-24T04:38:25;13.90;95.80
16863;DHT22;52193;48.216;-1.698;2023-04-24T04:40:55;13.90;95.80
16863;DHT22;52193;48.216;-1.698;2023-04-24T04:43:23;13.90;95.80
16863;DHT22;52193;48.216;-1.698;2023-04-24T04:45:50;13.90;95.80
16863;DHT22;52193;48.216;-1.698;2023-04-24T04:48:17;13.90;95.90
16863;DHT22;52193;48.216;-1.698;2023-04-24T04:50:46;13.90;95.90
16863;DHT22;52193;48.216;-1.698;2023-04-24T04:53:13;13.90;95.90
16863;DHT22;52193;48.216;-1.698;2023-04-24T04:55:39;13.90;95.90
16863;DHT22;52193;48.216;-1.698;2023-04-24T04:58:06;13.90;96.00
16863;DHT22;52193;48.216;-1.698;2023-04-24T05:00:33;13.90;95.90
16863;DHT22;52193;48.216;-1.698;2023-04-24T05:03:01;14.00;95.90
16863;DHT22;52193;48.216;-1.698;2023-04-24T05:05:28;14.00;95.90
16863;DHT22;52193;48.216;-1.698;2023-04-24T05:07:56;14.00;96.00
16863;DHT22;52193;48.216;-1.698;2023-04-24T05:10:23;13.80;95.90
16863;DHT22;52193;48.216;-1.698;2023-04-24T05:12:50;13.90;96.00
16863;DHT22;52193;48.216;-1.698;2023-04-24T05:15:17;13.90;96.00
16863;DHT22;52193;48.216;-1.698;2023-04-24T05:17:44;13.90;96.00
16863;DHT22;52193;48.216;-1.698;2023-04-24T05:20:11;14.00;96.10
16863;DHT22;52193;48.216;-1.698;2023-04-24T05:22:38;14.00;96.10
16863;DHT22;52193;48.216;-1.698;2023-04-24T05:25:07;13.90;96.00
16863;DHT22;52193;48.216;-1.698;2023-04-24T05:27:34;13.90;96.00
16863;DHT22;52193;48.216;-1.698;2023-04-24T05:30:01;13.90;96.10
16863;DHT22;52193;48.216;-1.698;2023-04-24T05:32:28;13.80;96.10
16863;DHT22;52193;48.216;-1.698;2023-04-24T05:34:55;13.90;96.20
16863;DHT22;52193;48.216;-1.698;2023-04-24T05:37:22;14.00;96.20
16863;DHT22;52193;48.216;-1.698;2023-04-24T05:39:49;14.00;96.20
16863;DHT22;52193;48.216;-1.698;2023-04-24T05:42:17;14.00;96.30
16863;DHT22;52193;48.216;-1.698;2023-04-24T05:44:44;14.00;96.20
16863;DHT22;52193;48.216;-1.698;2023-04-24T05:47:11;14.00;96.20
16863;DHT22;52193;48.216;-1.698;2023-04-24T05:49:38;14.10;96.20
16863;DHT22;52193;48.216;-1.698;2023-04-24T05:52:05;14.10;96.30
16863;DHT22;52193;48.216;-1.698;2023-04-24T05:54:34;13.90;96.20
16863;DHT22;52193;48.216;-1.698;2023-04-24T05:57:01;14.00;96.30
16863;DHT22;52193;48.216;-1.698;2023-04-24T06:02:01;14.00;96.40
16863;DHT22;52193;48.216;-1.698;2023-04-24T06:04:28;13.90;96.30
16863;DHT22;52193;48.216;-1.698;2023-04-24T06:06:55;13.80;96.30
16863;DHT22;52193;48.216;-1.698;2023-04-24T06:09:22;13.90;96.40
16863;DHT22;52193;48.216;-1.698;2023-04-24T06:11:49;13.80;96.50
16863;DHT22;52193;48.216;-1.698;2023-04-24T06:14:18;13.80;96.40
16863;DHT22;52193;48.216;-1.698;2023-04-24T06:16:46;13.80;96.60
16863;DHT22;52193;48.216;-1.698;2023-04-24T06:19:13;13.70;96.50
16863;DHT22;52193;48.216;-1.698;2023-04-24T06:21:40;13.70;96.60
16863;DHT22;52193;48.216;-1.698;2023-04-24T06:24:07;13.70;96.50
16863;DHT22;52193;48.216;-1.698;2023-04-24T06:26:34;13.70;96.70
16863;DHT22;52193;48.216;-1.698;2023-04-24T06:29:02;13.80;96.70
16863;DHT22;52193;48.216;-1.698;2023-04-24T06:31:28;13.80;96.60
16863;DHT22;52193;48.216;-1.698;2023-04-24T06:33:57;13.80;96.60
16863;DHT22;52193;48.216;-1.698;2023-04-24T06:36:24;13.80;96.70
16863;DHT22;52193;48.216;-1.698;2023-04-24T06:38:51;13.70;96.60
16863;DHT22;52193;48.216;-1.698;2023-04-24T06:41:17;13.70;96.70
16863;DHT22;52193;48.216;-1.698;2023-04-24T06:43:44;13.70;96.70
16863;DHT22;52193;48.216;-1.698;2023-04-24T06:46:11;13.80;96.60
16863;DHT22;52193;48.216;-1.698;2023-04-24T06:48:39;13.80;96.70
16863;DHT22;52193;48.216;-1.698;2023-04-24T06:51:07;13.90;96.60
16863;DHT22;52193;48.216;-1.698;2023-04-24T06:53:34;13.90;96.60
16863;DHT22;52193;48.216;-1.698;2023-04-24T06:56:01;14.00;96.50
16863;DHT22;52193;48.216;-1.698;2023-04-24T06:58:30;14.00;96.40
16863;DHT22;52193;48.216;-1.698;2023-04-24T07:00:57;14.10;96.40
16863;DHT22;52193;48.216;-1.698;2023-04-24T07:03:24;14.00;96.20
16863;DHT22;52193;48.216;-1.698;2023-04-24T07:05:51;14.10;96.30
16863;DHT22;52193;48.216;-1.698;2023-04-24T07:08:20;14.20;96.20
16863;DHT22;52193;48.216;-1.698;2023-04-24T07:10:48;14.20;96.10
16863;DHT22;52193;48.216;-1.698;2023-04-24T07:13:15;14.30;96.00
16863;DHT22;52193;48.216;-1.698;2023-04-24T07:15:42;14.20;95.90
16863;DHT22;52193;48.216;-1.698;2023-04-24T07:18:09;14.20;95.80
16863;DHT22;52193;48.216;-1.698;2023-04-24T07:20:36;14.30;95.80
16863;DHT22;52193;48.216;-1.698;2023-04-24T07:23:03;14.30;95.70
16863;DHT22;52193;48.216;-1.698;2023-04-24T07:25:31;14.30;95.70
16863;DHT22;52193;48.216;-1.698;2023-04-24T07:27:58;14.40;95.70
16863;DHT22;52193;48.216;-1.698;2023-04-24T07:30:25;14.40;95.50
16863;DHT22;52193;48.216;-1.698;2023-04-24T07:32:54;14.40;95.40
16863;DHT22;52193;48.216;-1.698;2023-04-24T07:35:21;14.50;95.50
16863;DHT22;52193;48.216;-1.698;2023-04-24T07:37:48;14.40;95.40
16863;DHT22;52193;48.216;-1.698;2023-04-24T07:40:15;14.50;95.40
16863;DHT22;52193;48.216;-1.698;2023-04-24T07:42:44;14.50;95.50
16863;DHT22;52193;48.216;-1.698;2023-04-24T07:45:10;14.50;95.40
16863;DHT22;52193;48.216;-1.698;2023-04-24T07:47:37;14.40;95.40
16863;DHT22;52193;48.216;-1.698;2023-04-24T07:50:06;14.50;95.40
16863;DHT22;52193;48.216;-1.698;2023-04-24T07:52:33;14.60;95.40
16863;DHT22;52193;48.216;-1.698;2023-04-24T07:54:59;14.60;95.30
16863;DHT22;52193;48.216;-1.698;2023-04-24T07:57:27;14.60;95.20
16863;DHT22;52193;48.216;-1.698;2023-04-24T07:59:56;14.60;95.30
16863;DHT22;52193;48.216;-1.698;2023-04-24T08:02:23;14.60;95.30
16863;DHT22;52193;48.216;-1.698;2023-04-24T08:04:52;14.60;95.20
16863;DHT22;52193;48.216;-1.698;2023-04-24T08:07:19;14.60;95.30
16863;DHT22;52193;48.216;-1.698;2023-04-24T08:09:46;14.60;95.20
16863;DHT22;52193;48.216;-1.698;2023-04-24T08:12:13;14.60;95.30
16863;DHT22;52193;48.216;-1.698;2023-04-24T08:14:40;14.70;95.20
16863;DHT22;52193;48.216;-1.698;2023-04-24T08:17:08;14.70;95.20
16863;DHT22;52193;48.216;-1.698;2023-04-24T08:19:35;14.70;95.20
16863;DHT22;52193;48.216;-1.698;2023-04-24T08:22:02;14.70;95.10
16863;DHT22;52193;48.216;-1.698;2023-04-24T08:24:29;14.80;95.10
16863;DHT22;52193;48.216;-1.698;2023-04-24T08:26:56;14.80;95.10
16863;DHT22;52193;48.216;-1.698;2023-04-24T08:29:24;14.90;95.10
16863;DHT22;52193;48.216;-1.698;2023-04-24T08:31:52;14.90;94.90
16863;DHT22;52193;48.216;-1.698;2023-04-24T08:34:22;14.90;94.80
16863;DHT22;52193;48.216;-1.698;2023-04-24T08:36:49;15.10;94.80
16863;DHT22;52193;48.216;-1.698;2023-04-24T08:39:17;15.20;94.50
16863;DHT22;52193;48.216;-1.698;2023-04-24T08:41:44;15.10;94.20
16863;DHT22;52193;48.216;-1.698;2023-04-24T08:44:12;15.00;94.10
16863;DHT22;52193;48.216;-1.698;2023-04-24T08:46:42;15.10;94.00
16863;DHT22;52193;48.216;-1.698;2023-04-24T08:49:11;15.00;93.90
16863;DHT22;52193;48.216;-1.698;2023-04-24T08:51:40;15.20;93.90
16863;DHT22;52193;48.216;-1.698;2023-04-24T08:54:07;15.30;93.80
16863;DHT22;52193;48.216;-1.698;2023-04-24T08:56:37;15.60;93.70
16863;DHT22;52193;48.216;-1.698;2023-04-24T08:59:05;15.70;93.60
16863;DHT22;52193;48.216;-1.698;2023-04-24T09:01:33;15.80;93.40
16863;DHT22;52193;48.216;-1.698;2023-04-24T09:04:02;15.80;93.20
16863;DHT22;52193;48.216;-1.698;2023-04-24T09:06:30;15.80;93.10
16863;DHT22;52193;48.216;-1.698;2023-04-24T09:09:01;15.90;93.00
16863;DHT22;52193;48.216;-1.698;2023-04-24T09:11:30;16.00;93.00
16863;DHT22;52193;48.216;-1.698;2023-04-24T09:13:58;15.90;92.80
16863;DHT22;52193;48.216;-1.698;2023-04-24T09:16:26;16.00;92.80
16863;DHT22;52193;48.216;-1.698;2023-04-24T09:18:53;16.00;92.60
16863;DHT22;52193;48.216;-1.698;2023-04-24T09:21:21;16.20;92.50
16863;DHT22;52193;48.216;-1.698;2023-04-24T09:23:57;16.20;92.20
16863;DHT22;52193;48.216;-1.698;2023-04-24T09:26:29;16.40;92.10
16863;DHT22;52193;48.216;-1.698;2023-04-24T09:28:57;16.40;91.90
16863;DHT22;52193;48.216;-1.698;2023-04-24T09:31:27;16.60;91.80
16863;DHT22;52193;48.216;-1.698;2023-04-24T09:33:55;16.70;91.70
16863;DHT22;52193;48.216;-1.698;2023-04-24T09:36:29;16.70;91.40
16863;DHT22;52193;48.216;-1.698;2023-04-24T09:38:58;16.80;91.60
16863;DHT22;52193;48.216;-1.698;2023-04-24T09:41:27;16.90;91.40
16863;DHT22;52193;48.216;-1.698;2023-04-24T09:43:55;16.90;91.30
16863;DHT22;52193;48.216;-1.698;2023-04-24T09:46:29;16.80;91.00
16863;DHT22;52193;48.216;-1.698;2023-04-24T09:48:57;16.70;90.80
16863;DHT22;52193;48.216;-1.698;2023-04-24T09:51:34;16.80;90.90
16863;DHT22;52193;48.216;-1.698;2023-04-24T09:54:02;17.00;91.10
16863;DHT22;52193;48.216;-1.698;2023-04-24T09:56:33;17.10;90.80
16863;DHT22;52193;48.216;-1.698;2023-04-24T09:59:07;17.10;90.80
16863;DHT22;52193;48.216;-1.698;2023-04-24T10:01:34;17.10;90.60
16863;DHT22;52193;48.216;-1.698;2023-04-24T10:04:02;17.00;90.40
16863;DHT22;52193;48.216;-1.698;2023-04-24T10:06:34;17.10;90.40
16863;DHT22;52193;48.216;-1.698;2023-04-24T10:09:02;17.10;90.30
16863;DHT22;52193;48.216;-1.698;2023-04-24T10:11:29;17.00;90.40
16863;DHT22;52193;48.216;-1.698;2023-04-24T10:13:58;17.10;90.40
16863;DHT22;52193;48.216;-1.698;2023-04-24T10:16:26;17.10;90.40
16863;DHT22;52193;48.216;-1.698;2023-04-24T10:18:54;17.10;90.30
16863;DHT22;52193;48.216;-1.698;2023-04-24T10:21:23;17.20;90.10
16863;DHT22;52193;48.216;-1.698;2023-04-24T10:23:50;17.30;90.00
16863;DHT22;52193;48.216;-1.698;2023-04-24T10:26:18;17.30;88.70
16863;DHT22;52193;48.216;-1.698;2023-04-24T10:28:46;17.30;88.30
16863;DHT22;52193;48.216;-1.698;2023-04-24T10:31:15;17.40;88.00
16863;DHT22;52193;48.216;-1.698;2023-04-24T10:33:43;17.50;87.70
16863;DHT22;52193;48.216;-1.698;2023-04-24T10:36:10;17.50;87.30
16863;DHT22;52193;48.216;-1.698;2023-04-24T10:38:40;17.60;86.90
16863;DHT22;52193;48.216;-1.698;2023-04-24T10:41:09;17.60;86.90
16863;DHT22;52193;48.216;-1.698;2023-04-24T10:43:41;17.60;86.40
16863;DHT22;52193;48.216;-1.698;2023-04-24T10:46:09;17.60;86.30
16863;DHT22;52193;48.216;-1.698;2023-04-24T10:48:42;17.60;86.20
16863;DHT22;52193;48.216;-1.698;2023-04-24T10:51:12;17.60;86.00
16863;DHT22;52193;48.216;-1.698;2023-04-24T10:53:39;17.70;85.80
16863;DHT22;52193;48.216;-1.698;2023-04-24T10:56:08;17.80;85.30
16863;DHT22;52193;48.216;-1.698;2023-04-24T10:58:37;17.80;85.50
16863;DHT22;52193;48.216;-1.698;2023-04-24T11:01:05;17.80;85.40
16863;DHT22;52193;48.216;-1.698;2023-04-24T11:03:34;17.90;85.10
16863;DHT22;52193;48.216;-1.698;2023-04-24T11:06:04;18.00;84.90
16863;DHT22;52193;48.216;-1.698;2023-04-24T11:08:36;18.00;84.60
16863;DHT22;52193;48.216;-1.698;2023-04-24T11:11:08;17.90;84.40
16863;DHT22;52193;48.216;-1.698;2023-04-24T11:14:04;18.00;84.50
16863;DHT22;52193;48.216;-1.698;2023-04-24T11:16:38;18.00;84.70
16863;DHT22;52193;48.216;-1.698;2023-04-24T11:19:07;18.30;84.80
16863;DHT22;52193;48.216;-1.698;2023-04-24T11:21:43;18.40;85.00
16863;DHT22;52193;48.216;-1.698;2023-04-24T11:24:31;18.50;85.00
16863;DHT22;52193;48.216;-1.698;2023-04-24T11:27:12;18.60;84.60
16863;DHT22;52193;48.216;-1.698;2023-04-24T11:29:44;18.60;83.90
16863;DHT22;52193;48.216;-1.698;2023-04-24T11:32:19;18.80;84.20
16863;DHT22;52193;48.216;-1.698;2023-04-24T11:34:52;18.90;84.70
16863;DHT22;52193;48.216;-1.698;2023-04-24T11:37:22;18.80;84.80
16863;DHT22;52193;48.216;-1.698;2023-04-24T11:39:51;18.70;84.60
16863;DHT22;52193;48.216;-1.698;2023-04-24T11:42:18;18.70;84.50
16863;DHT22;52193;48.216;-1.698;2023-04-24T11:44:46;18.40;83.10
16863;DHT22;52193;48.216;-1.698;2023-04-24T11:47:14;18.50;83.20
16863;DHT22;52193;48.216;-1.698;2023-04-24T11:49:41;18.70;83.20
16863;DHT22;52193;48.216;-1.698;2023-04-24T11:52:08;18.80;83.00
16863;DHT22;52193;48.216;-1.698;2023-04-24T11:54:37;18.90;82.90
16863;DHT22;52193;48.216;-1.698;2023-04-24T11:57:04;19.00;82.60
16863;DHT22;52193;48.216;-1.698;2023-04-24T11:59:35;19.00;81.80
16863;DHT22;52193;48.216;-1.698;2023-04-24T12:02:03;19.10;82.00
16863;DHT22;52193;48.216;-1.698;2023-04-24T12:04:39;19.10;81.80
16863;DHT22;52193;48.216;-1.698;2023-04-24T12:07:07;19.30;81.70
16863;DHT22;52193;48.216;-1.698;2023-04-24T12:09:43;19.30;81.40
16863;DHT22;52193;48.216;-1.698;2023-04-24T12:12:11;19.40;81.30
16863;DHT22;52193;48.216;-1.698;2023-04-24T12:14:48;19.40;81.10
16863;DHT22;52193;48.216;-1.698;2023-04-24T12:17:15;19.30;80.80
16863;DHT22;52193;48.216;-1.698;2023-04-24T12:19:46;19.30;81.10
16863;DHT22;52193;48.216;-1.698;2023-04-24T12:22:13;19.30;81.00
16863;DHT22;52193;48.216;-1.698;2023-04-24T12:24:58;19.20;81.40
16863;DHT22;52193;48.216;-1.698;2023-04-24T12:27:26;19.20;81.20
16863;DHT22;52193;48.216;-1.698;2023-04-24T12:29:54;19.10;81.40
16863;DHT22;52193;48.216;-1.698;2023-04-24T12:32:22;19.20;81.70
16863;DHT22;52193;48.216;-1.698;2023-04-24T12:34:49;19.20;81.40
16863;DHT22;52193;48.216;-1.698;2023-04-24T12:37:17;19.20;81.50
16863;DHT22;52193;48.216;-1.698;2023-04-24T12:40:03;19.20;81.30
16863;DHT22;52193;48.216;-1.698;2023-04-24T12:42:31;19.30;81.10
16863;DHT22;52193;48.216;-1.698;2023-04-24T12:45:00;19.20;81.10
16863;DHT22;52193;48.216;-1.698;2023-04-24T12:47:27;19.30;81.30
16863;DHT22;52193;48.216;-1.698;2023-04-24T12:49:55;19.40;81.30
16863;DHT22;52193;48.216;-1.698;2023-04-24T12:52:22;19.40;81.50
16863;DHT22;52193;48.216;-1.698;2023-04-24T12:54:49;19.60;81.50
16863;DHT22;52193;48.216;-1.698;2023-04-24T12:57:18;19.90;81.20
16863;DHT22;52193;48.216;-1.698;2023-04-24T12:59:45;20.80;80.60
16863;DHT22;52193;48.216;-1.698;2023-04-24T13:02:12;21.70;79.20
16863;DHT22;52193;48.216;-1.698;2023-04-24T13:04:39;22.20;78.20
16863;DHT22;52193;48.216;-1.698;2023-04-24T13:07:06;22.70;77.40
16863;DHT22;52193;48.216;-1.698;2023-04-24T13:09:34;22.80;76.10
16863;DHT22;52193;48.216;-1.698;2023-04-24T13:12:01;22.80;75.40
16863;DHT22;52193;48.216;-1.698;2023-04-24T13:14:30;23.00;75.30
16863;DHT22;52193;48.216;-1.698;2023-04-24T13:16:56;23.70;74.80
16863;DHT22;52193;48.216;-1.698;2023-04-24T13:19:24;24.00;74.80
16863;DHT22;52193;48.216;-1.698;2023-04-24T13:21:52;24.00;73.70
16863;DHT22;52193;48.216;-1.698;2023-04-24T13:24:19;23.90;73.80
16863;DHT22;52193;48.216;-1.698;2023-04-24T13:26:46;24.10;73.60
16863;DHT22;52193;48.216;-1.698;2023-04-24T13:29:13;24.20;72.70
16863;DHT22;52193;48.216;-1.698;2023-04-24T13:31:41;23.90;72.50
16863;DHT22;52193;48.216;-1.698;2023-04-24T13:34:08;23.50;72.40
16863;DHT22;52193;48.216;-1.698;2023-04-24T13:36:35;23.20;72.90
16863;DHT22;52193;48.216;-1.698;2023-04-24T13:39:02;22.70;73.20
16863;DHT22;52193;48.216;-1.698;2023-04-24T13:41:30;22.50;74.20
16863;DHT22;52193;48.216;-1.698;2023-04-24T13:43:56;22.30;74.30
16863;DHT22;52193;48.216;-1.698;2023-04-24T13:46:23;22.10;74.70
16863;DHT22;52193;48.216;-1.698;2023-04-24T13:48:52;22.20;75.20
16863;DHT22;52193;48.216;-1.698;2023-04-24T13:51:19;23.20;75.20
16863;DHT22;52193;48.216;-1.698;2023-04-24T13:53:46;24.70;73.50
16863;DHT22;52193;48.216;-1.698;2023-04-24T13:56:12;26.10;71.50
16863;DHT22;52193;48.216;-1.698;2023-04-24T13:58:40;26.50;68.90
16863;DHT22;52193;48.216;-1.698;2023-04-24T14:01:07;26.10;69.10
16863;DHT22;52193;48.216;-1.698;2023-04-24T14:03:34;26.60;67.50
16863;DHT22;52193;48.216;-1.698;2023-04-24T14:06:02;27.10;67.40
16863;DHT22;52193;48.216;-1.698;2023-04-24T14:08:29;27.70;67.10
16863;DHT22;52193;48.216;-1.698;2023-04-24T14:10:56;27.60;66.00
16863;DHT22;52193;48.216;-1.698;2023-04-24T14:13:23;26.80;66.70
16863;DHT22;52193;48.216;-1.698;2023-04-24T14:15:51;26.20;67.80
16863;DHT22;52193;48.216;-1.698;2023-04-24T14:18:18;25.50;68.40
16863;DHT22;52193;48.216;-1.698;2023-04-24T14:20:45;25.00;69.40
16863;DHT22;52193;48.216;-1.698;2023-04-24T14:23:13;24.40;70.10
16863;DHT22;52193;48.216;-1.698;2023-04-24T14:25:40;23.90;70.80
16863;DHT22;52193;48.216;-1.698;2023-04-24T14:28:07;23.40;71.50
16863;DHT22;52193;48.216;-1.698;2023-04-24T14:30:34;23.00;72.20
16863;DHT22;52193;48.216;-1.698;2023-04-24T14:33:03;22.60;73.20
16863;DHT22;52193;48.216;-1.698;2023-04-24T14:35:30;22.10;75.30
16863;DHT22;52193;48.216;-1.698;2023-04-24T14:37:59;21.80;77.00
16863;DHT22;52193;48.216;-1.698;2023-04-24T14:40:27;21.40;78.60
16863;DHT22;52193;48.216;-1.698;2023-04-24T14:42:55;21.60;79.40
16863;DHT22;52193;48.216;-1.698;2023-04-24T14:45:23;21.70;79.80
16863;DHT22;52193;48.216;-1.698;2023-04-24T14:47:50;22.40;80.60
16863;DHT22;52193;48.216;-1.698;2023-04-24T14:50:17;23.00;79.90
16863;DHT22;52193;48.216;-1.698;2023-04-24T14:52:44;24.20;79.30
16863;DHT22;52193;48.216;-1.698;2023-04-24T14:55:11;25.30;77.90
16863;DHT22;52193;48.216;-1.698;2023-04-24T14:57:40;26.50;76.30
16863;DHT22;52193;48.216;-1.698;2023-04-24T15:00:08;27.80;74.70
16863;DHT22;52193;48.216;-1.698;2023-04-24T15:02:35;28.20;72.90
16863;DHT22;52193;48.216;-1.698;2023-04-24T15:05:06;28.40;71.50
16863;DHT22;52193;48.216;-1.698;2023-04-24T15:07:33;29.20;71.50
16863;DHT22;52193;48.216;-1.698;2023-04-24T15:10:01;29.60;70.10
16863;DHT22;52193;48.216;-1.698;2023-04-24T15:12:28;29.60;69.00
16863;DHT22;52193;48.216;-1.698;2023-04-24T15:14:57;29.80;68.70
16863;DHT22;52193;48.216;-1.698;2023-04-24T15:17:24;29.90;68.10
16863;DHT22;52193;48.216;-1.698;2023-04-24T15:19:52;29.80;67.60
16863;DHT22;52193;48.216;-1.698;2023-04-24T15:22:18;29.20;66.90